sensor_id;sensor_type;location;lat;lon;timestamp;temperature;humidity
25983;DHT22;13773;48.868;10.730;2022-07-23T00:02:23;21.20;99.90
25983;DHT22;13773;48.868;10.730;2022-07-23T00:04:48;21.20;99.90
25983;DHT22;13773;48.868;10.730;2022-07-23T00:07:14;21.20;99.90
25983;DHT22;13773;48.868;10.730;2022-07-23T00:09:40;21.20;99.90
25983;DHT22;13773;48.868;10.730;2022-07-23T00:12:06;21.20;99.90
25983;DHT22;13773;48.868;10.730;2022-07-23T00:14:32;21.20;99.90
25983;DHT22;13773;48.868;10.730;2022-07-23T00:16:57;21.10;99.90
25983;DHT22;13773;48.868;10.730;2022-07-23T00:19:23;21.00;99.90
25983;DHT22;13773;48.868;10.730;2022-07-23T00:21:49;21.00;99.90
25983;DHT22;13773;48.868;10.730;2022-07-23T00:24:14;21.00;99.90
25983;DHT22;13773;48.868;10.730;2022-07-23T00:26:40;21.10;99.90
25983;DHT22;13773;48.868;10.730;2022-07-23T00:29:06;21.00;99.90
25983;DHT22;13773;48.868;10.730;2022-07-23T00:31:31;20.90;99.90
25983;DHT22;13773;48.868;10.730;2022-07-23T00:33:57;20.90;99.90
25983;DHT22;13773;48.868;10.730;2022-07-23T00:36:26;21.00;99.90
25983;DHT22;13773;48.868;10.730;2022-07-23T00:39:02;21.00;99.90
25983;DHT22;13773;48.868;10.730;2022-07-23T00:41:28;21.00;99.90
25983;DHT22;13773;48.868;10.730;2022-07-23T00:43:54;21.00;99.90
25983;DHT22;13773;48.868;10.730;2022-07-23T00:46:20;21.00;99.90
25983;DHT22;13773;48.868;10.730;2022-07-23T00:48:46;21.10;99.90
25983;DHT22;13773;48.868;10.730;2022-07-23T00:51:12;21.10;99.90
25983;DHT22;13773;48.868;10.730;2022-07-23T00:53:38;21.20;99.90
25983;DHT22;13773;48.868;10.730;2022-07-23T00:56:04;21.30;99.90
25983;DHT22;13773;48.868;10.730;2022-07-23T00:58:31;21.40;99.90
25983;DHT22;13773;48.868;10.730;2022-07-23T01:00:58;21.50;99.90
25983;DHT22;13773;48.868;10.730;2022-07-23T01:03:24;21.60;99.90
25983;DHT22;13773;48.868;10.730;2022-07-23T01:05:50;21.60;99.90
25983;DHT22;13773;48.868;10.730;2022-07-23T01:08:16;21.70;99.90
25983;DHT22;13773;48.868;10.730;2022-07-23T01:10:42;21.70;99.90
25983;DHT22;13773;48.868;10.730;2022-07-23T01:13:09;21.70;99.90
25983;DHT22;13773;48.868;10.730;2022-07-23T01:15:36;21.60;99.90
25983;DHT22;13773;48.868;10.730;2022-07-23T01:18:04;21.60;99.90
25983;DHT22;13773;48.868;10.730;2022-07-23T01:20:31;21.60;99.90
25983;DHT22;13773;48.868;10.730;2022-07-23T01:22:57;21.50;99.90
25983;DHT22;13773;48.868;10.730;2022-07-23T01:25:24;21.50;99.90
25983;DHT22;13773;48.868;10.730;2022-07-23T01:27:52;21.50;99.90
25983;DHT22;13773;48.868;10.730;2022-07-23T01:30:18;21.50;99.90
25983;DHT22;13773;48.868;10.730;2022-07-23T01:32:44;21.50;99.90
25983;DHT22;13773;48.868;10.730;2022-07-23T01:35:11;21.50;99.90
25983;DHT22;13773;48.868;10.730;2022-07-23T01:37:37;21.60;99.90
25983;DHT22;13773;48.868;10.730;2022-07-23T01:40:04;24.20;99.90
25983;DHT22;13773;48.868;10.730;2022-07-23T01:42:30;21.70;99.90
25983;DHT22;13773;48.868;10.730;2022-07-23T01:44:56;21.60;99.90
25983;DHT22;13773;48.868;10.730;2022-07-23T01:47:22;21.70;99.90
25983;DHT22;13773;48.868;10.730;2022-07-23T01:49:47;21.60;99.90
25983;DHT22;13773;48.868;10.730;2022-07-23T01:52:15;21.60;99.90
25983;DHT22;13773;48.868;10.730;2022-07-23T01:54:42;21.60;99.90
25983;DHT22;13773;48.868;10.730;2022-07-23T01:57:08;21.60;99.90
25983;DHT22;13773;48.868;10.730;2022-07-23T01:59:34;21.50;99.90
25983;DHT22;13773;48.868;10.730;2022-07-23T02:02:00;21.50;99.90
25983;DHT22;13773;48.868;10.730;2022-07-23T02:04:26;21.50;99.90
25983;DHT22;13773;48.868;10.730;2022-07-23T02:06:52;21.40;99.90
25983;DHT22;13773;48.868;10.730;2022-07-23T02:09:18;21.40;99.90
25983;DHT22;13773;48.868;10.730;2022-07-23T02:11:44;21.40;99.90
25983;DHT22;13773;48.868;10.730;2022-07-23T02:14:10;21.50;99.90
25983;DHT22;13773;48.868;10.730;2022-07-23T02:16:35;21.30;99.90
25983;DHT22;13773;48.868;10.730;2022-07-23T02:19:02;21.30;99.90
25983;DHT22;13773;48.868;10.730;2022-07-23T02:21:28;21.20;99.90
25983;DHT22;13773;48.868;10.730;2022-07-23T02:23:53;21.20;99.90
25983;DHT22;13773;48.868;10.730;2022-07-23T02:26:19;21.10;99.90
25983;DHT22;13773;48.868;10.730;2022-07-23T02:28:45;21.10;99.90
25983;DHT22;13773;48.868;10.730;2022-07-23T02:31:10;21.10;99.90
25983;DHT22;13773;48.868;10.730;2022-07-23T02:33:36;21.10;99.90
25983;DHT22;13773;48.868;10.730;2022-07-23T02:36:02;21.10;99.90
25983;DHT22;13773;48.868;10.730;2022-07-23T02:38:30;21.10;99.90
25983;DHT22;13773;48.868;10.730;2022-07-23T02:40:55;21.00;99.90
25983;DHT22;13773;48.868;10.730;2022-07-23T02:43:21;21.00;99.90
25983;DHT22;13773;48.868;10.730;2022-07-23T02:45:47;20.90;99.90
25983;DHT22;13773;48.868;10.730;2022-07-23T02:48:12;20.80;99.90
25983;DHT22;13773;48.868;10.730;2022-07-23T02:50:39;20.70;99.90
25983;DHT22;13773;48.868;10.730;2022-07-23T02:53:06;20.70;99.90
25983;DHT22;13773;48.868;10.730;2022-07-23T02:55:34;20.70;99.90
25983;DHT22;13773;48.868;10.730;2022-07-23T02:57:59;20.70;99.90
25983;DHT22;13773;48.868;10.730;2022-07-23T03:00:25;20.60;99.90
25983;DHT22;13773;48.868;10.730;2022-07-23T03:02:51;20.60;99.90
25983;DHT22;13773;48.868;10.730;2022-07-23T03:05:16;20.50;99.90
25983;DHT22;13773;48.868;10.730;2022-07-23T03:07:42;20.50;99.90
25983;DHT22;13773;48.868;10.730;2022-07-23T03:10:08;20.40;99.90
25983;DHT22;13773;48.868;10.730;2022-07-23T03:12:34;20.30;99.90
25983;DHT22;13773;48.868;10.730;2022-07-23T03:15:00;20.30;99.90
25983;DHT22;13773;48.868;10.730;2022-07-23T03:17:25;20.20;99.90
25983;DHT22;13773;48.868;10.730;2022-07-23T03:19:51;20.20;99.90
25983;DHT22;13773;48.868;10.730;2022-07-23T03:22:17;20.10;99.90
25983;DHT22;13773;48.868;10.730;2022-07-23T03:24:43;20.00;99.90
25983;DHT22;13773;48.868;10.730;2022-07-23T03:27:22;19.90;99.90
25983;DHT22;13773;48.868;10.730;2022-07-23T03:29:49;19.80;99.90
25983;DHT22;13773;48.868;10.730;2022-07-23T03:32:15;19.70;99.90
25983;DHT22;13773;48.868;10.730;2022-07-23T03:34:41;19.60;99.90
25983;DHT22;13773;48.868;10.730;2022-07-23T03:37:06;19.50;99.90
25983;DHT22;13773;48.868;10.730;2022-07-23T03:39:32;19.50;99.90
25983;DHT22;13773;48.868;10.730;2022-07-23T03:41:58;19.40;99.90
25983;DHT22;13773;48.868;10.730;2022-07-23T03:44:24;19.40;99.90
25983;DHT22;13773;48.868;10.730;2022-07-23T03:46:50;19.40;99.90
25983;DHT22;13773;48.868;10.730;2022-07-23T03:49:15;19.30;99.90
25983;DHT22;13773;48.868;10.730;2022-07-23T03:51:41;19.30;99.90
25983;DHT22;13773;48.868;10.730;2022-07-23T03:54:07;19.20;99.90
25983;DHT22;13773;48.868;10.730;2022-07-23T03:56:33;19.20;99.90
25983;DHT22;13773;48.868;10.730;2022-07-23T03:58:58;19.10;99.90
25983;DHT22;13773;48.868;10.730;2022-07-23T04:01:26;19.10;99.90
25983;DHT22;13773;48.868;10.730;2022-07-23T04:03:52;19.10;99.90
25983;DHT22;13773;48.868;10.730;2022-07-23T04:06:20;19.10;99.90
25983;DHT22;13773;48.868;10.730;2022-07-23T04:08:46;19.10;99.90
25983;DHT22;13773;48.868;10.730;2022-07-23T04:11:11;19.10;99.90
25983;DHT22;13773;48.868;10.730;2022-07-23T04:13:37;19.10;99.90
25983;DHT22;13773;48.868;10.730;2022-07-23T04:16:03;19.10;99.90
25983;DHT22;13773;48.868;10.730;2022-07-23T04:18:29;19.10;99.90
25983;DHT22;13773;48.868;10.730;2022-07-23T04:20:55;19.20;99.90
25983;DHT22;13773;48.868;10.730;2022-07-23T04:23:21;19.20;99.90
25983;DHT22;13773;48.868;10.730;2022-07-23T04:25:46;19.30;99.90
25983;DHT22;13773;48.868;10.730;2022-07-23T04:28:12;19.30;99.90
25983;DHT22;13773;48.868;10.730;2022-07-23T04:30:38;19.40;99.90
25983;DHT22;13773;48.868;10.730;2022-07-23T04:33:04;19.30;99.90
25983;DHT22;13773;48.868;10.730;2022-07-23T04:35:34;19.30;99.90
25983;DHT22;13773;48.868;10.730;2022-07-23T04:37:59;19.30;99.90
25983;DHT22;13773;48.868;10.730;2022-07-23T04:40:26;19.40;99.90
25983;DHT22;13773;48.868;10.730;2022-07-23T04:42:52;19.40;99.90
25983;DHT22;13773;48.868;10.730;2022-07-23T04:45:17;19.30;99.90
25983;DHT22;13773;48.868;10.730;2022-07-23T04:47:43;19.30;99.90
25983;DHT22;13773;48.868;10.730;2022-07-23T04:50:09;19.40;99.90
25983;DHT22;13773;48.868;10.730;2022-07-23T04:52:35;19.40;99.90
25983;DHT22;13773;48.868;10.730;2022-07-23T04:55:00;19.40;99.90
25983;DHT22;13773;48.868;10.730;2022-07-23T04:57:26;19.40;99.90
25983;DHT22;13773;48.868;10.730;2022-07-23T04:59:52;19.50;99.90
25983;DHT22;13773;48.868;10.730;2022-07-23T05:02:22;19.60;99.90
25983;DHT22;13773;48.868;10.730;2022-07-23T05:04:48;19.80;99.90
25983;DHT22;13773;48.868;10.730;2022-07-23T05:07:13;19.90;99.90
25983;DHT22;13773;48.868;10.730;2022-07-23T05:09:40;20.10;99.90
25983;DHT22;13773;48.868;10.730;2022-07-23T05:12:15;20.10;99.90
25983;DHT22;13773;48.868;10.730;2022-07-23T05:14:47;20.30;99.90
25983;DHT22;13773;48.868;10.730;2022-07-23T05:17:12;20.50;99.90
25983;DHT22;13773;48.868;10.730;2022-07-23T05:19:39;20.60;99.90
25983;DHT22;13773;48.868;10.730;2022-07-23T05:22:04;20.60;99.90
25983;DHT22;13773;48.868;10.730;2022-07-23T05:24:30;21.00;99.90
25983;DHT22;13773;48.868;10.730;2022-07-23T05:27:04;21.30;99.90
25983;DHT22;13773;48.868;10.730;2022-07-23T05:29:30;21.60;99.90
25983;DHT22;13773;48.868;10.730;2022-07-23T05:31:56;22.10;99.90
25983;DHT22;13773;48.868;10.730;2022-07-23T05:34:21;22.40;99.90
25983;DHT22;13773;48.868;10.730;2022-07-23T05:36:47;22.90;99.90
25983;DHT22;13773;48.868;10.730;2022-07-23T05:39:15;22.80;99.90
25983;DHT22;13773;48.868;10.730;2022-07-23T05:41:41;23.20;99.90
25983;DHT22;13773;48.868;10.730;2022-07-23T05:44:17;23.60;99.90
25983;DHT22;13773;48.868;10.730;2022-07-23T05:46:46;24.40;99.90
25983;DHT22;13773;48.868;10.730;2022-07-23T05:49:22;24.70;99.90
25983;DHT22;13773;48.868;10.730;2022-07-23T05:51:58;24.50;99.90
25983;DHT22;13773;48.868;10.730;2022-07-23T05:54:24;24.40;99.90
25983;DHT22;13773;48.868;10.730;2022-07-23T05:56:56;24.50;99.90
25983;DHT22;13773;48.868;10.730;2022-07-23T05:59:33;24.80;99.90
25983;DHT22;13773;48.868;10.730;2022-07-23T06:01:59;25.20;99.90
25983;DHT22;13773;48.868;10.730;2022-07-23T06:07:00;25.30;99.90
25983;DHT22;13773;48.868;10.730;2022-07-23T06:09:26;25.60;99.90
25983;DHT22;13773;48.868;10.730;2022-07-23T06:11:52;26.50;99.90
25983;DHT22;13773;48.868;10.730;2022-07-23T06:14:18;26.70;99.90
25983;DHT22;13773;48.868;10.730;2022-07-23T06:16:43;26.90;99.90
25983;DHT22;13773;48.868;10.730;2022-07-23T06:19:09;27.30;99.90
25983;DHT22;13773;48.868;10.730;2022-07-23T06:21:35;27.40;99.90
25983;DHT22;13773;48.868;10.730;2022-07-23T06:24:00;27.80;99.90
25983;DHT22;13773;48.868;10.730;2022-07-23T06:26:26;27.60;99.90
25983;DHT22;13773;48.868;10.730;2022-07-23T06:28:52;28.10;99.90
25983;DHT22;13773;48.868;10.730;2022-07-23T06:31:17;27.80;99.90
25983;DHT22;13773;48.868;10.730;2022-07-23T06:33:43;27.80;99.90
25983;DHT22;13773;48.868;10.730;2022-07-23T06:36:09;27.50;99.90
25983;DHT22;13773;48.868;10.730;2022-07-23T06:38:34;27.10;99.90
25983;DHT22;13773;48.868;10.730;2022-07-23T06:41:00;27.20;99.90
25983;DHT22;13773;48.868;10.730;2022-07-23T06:43:26;27.90;99.90
25983;DHT22;13773;48.868;10.730;2022-07-23T06:45:52;27.60;99.90
25983;DHT22;13773;48.868;10.730;2022-07-23T06:48:17;27.40;99.90
25983;DHT22;13773;48.868;10.730;2022-07-23T06:50:43;27.70;99.90
25983;DHT22;13773;48.868;10.730;2022-07-23T06:53:09;27.90;99.90
25983;DHT22;13773;48.868;10.730;2022-07-23T06:55:34;28.00;99.90
25983;DHT22;13773;48.868;10.730;2022-07-23T06:58:04;28.10;99.90
25983;DHT22;13773;48.868;10.730;2022-07-23T07:00:30;28.10;99.90
25983;DHT22;13773;48.868;10.730;2022-07-23T07:02:56;27.50;99.90
25983;DHT22;13773;48.868;10.730;2022-07-23T07:05:22;26.90;99.90
25983;DHT22;13773;48.868;10.730;2022-07-23T07:07:48;26.60;99.90
25983;DHT22;13773;48.868;10.730;2022-07-23T07:10:14;26.80;99.90
25983;DHT22;13773;48.868;10.730;2022-07-23T07:12:41;27.50;99.90
25983;DHT22;13773;48.868;10.730;2022-07-23T07:15:07;27.50;99.90
25983;DHT22;13773;48.868;10.730;2022-07-23T07:17:33;27.10;99.90
25983;DHT22;13773;48.868;10.730;2022-07-23T07:19:59;27.00;99.90
25983;DHT22;13773;48.868;10.730;2022-07-23T07:22:25;26.70;99.90
25983;DHT22;13773;48.868;10.730;2022-07-23T07:24:50;26.00;99.90
25983;DHT22;13773;48.868;10.730;2022-07-23T07:27:16;26.40;99.90
25983;DHT22;13773;48.868;10.730;2022-07-23T07:29:42;26.90;99.90
25983;DHT22;13773;48.868;10.730;2022-07-23T07:32:08;27.00;99.90
25983;DHT22;13773;48.868;10.730;2022-07-23T07:34:33;27.60;99.90
25983;DHT22;13773;48.868;10.730;2022-07-23T07:36:59;28.00;99.90
25983;DHT22;13773;48.868;10.730;2022-07-23T07:39:25;27.80;99.90
25983;DHT22;13773;48.868;10.730;2022-07-23T07:41:50;27.50;99.90
25983;DHT22;13773;48.868;10.730;2022-07-23T07:44:16;27.70;99.90
25983;DHT22;13773;48.868;10.730;2022-07-23T07:46:42;27.40;99.90
25983;DHT22;13773;48.868;10.730;2022-07-23T07:49:07;27.20;99.90
25983;DHT22;13773;48.868;10.730;2022-07-23T07:51:33;27.20;99.90
25983;DHT22;13773;48.868;10.730;2022-07-23T07:53:59;27.40;99.90
25983;DHT22;13773;48.868;10.730;2022-07-23T07:56:25;27.50;99.90
25983;DHT22;13773;48.868;10.730;2022-07-23T07:58:51;27.30;99.90
25983;DHT22;13773;48.868;10.730;2022-07-23T08:01:16;27.20;99.90
25983;DHT22;13773;48.868;10.730;2022-07-23T08:03:42;27.20;99.90
25983;DHT22;13773;48.868;10.730;2022-07-23T08:06:08;27.00;99.90
25983;DHT22;13773;48.868;10.730;2022-07-23T08:08:34;26.90;99.90
25983;DHT22;13773;48.868;10.730;2022-07-23T08:10:59;27.00;99.90
25983;DHT22;13773;48.868;10.730;2022-07-23T08:13:25;26.80;99.90
25983;DHT22;13773;48.868;10.730;2022-07-23T08:15:51;26.80;99.90
25983;DHT22;13773;48.868;10.730;2022-07-23T08:18:19;26.80;99.90
25983;DHT22;13773;48.868;10.730;2022-07-23T08:20:44;26.90;99.90
25983;DHT22;13773;48.868;10.730;2022-07-23T08:23:12;27.10;99.90
25983;DHT22;13773;48.868;10.730;2022-07-23T08:25:40;26.50;99.90
25983;DHT22;13773;48.868;10.730;2022-07-23T08:28:08;26.20;99.90
25983;DHT22;13773;48.868;10.730;2022-07-23T08:30:35;26.30;99.90
25983;DHT22;13773;48.868;10.730;2022-07-23T08:33:09;26.20;99.90
25983;DHT22;13773;48.868;10.730;2022-07-23T08:35:46;26.30;99.90
25983;DHT22;13773;48.868;10.730;2022-07-23T08:38:15;26.50;99.90
25983;DHT22;13773;48.868;10.730;2022-07-23T08:40:44;26.60;99.90
25983;DHT22;13773;48.868;10.730;2022-07-23T08:43:12;26.40;99.90
25983;DHT22;13773;48.868;10.730;2022-07-23T08:45:40;26.90;99.90
25983;DHT22;13773;48.868;10.730;2022-07-23T08:48:17;26.90;99.90
25983;DHT22;13773;48.868;10.730;2022-07-23T08:50:45;26.60;99.90
25983;DHT22;13773;48.868;10.730;2022-07-23T08:53:11;26.90;99.90
25983;DHT22;13773;48.868;10.730;2022-07-23T08:55:37;27.00;99.90
25983;DHT22;13773;48.868;10.730;2022-07-23T08:58:03;27.30;99.90
25983;DHT22;13773;48.868;10.730;2022-07-23T09:00:29;27.80;99.90
25983;DHT22;13773;48.868;10.730;2022-07-23T09:02:55;27.70;99.90
25983;DHT22;13773;48.868;10.730;2022-07-23T09:05:21;27.60;99.90
25983;DHT22;13773;48.868;10.730;2022-07-23T09:11:05;27.60;99.90
25983;DHT22;13773;48.868;10.730;2022-07-23T09:16:09;27.80;99.90
25983;DHT22;13773;48.868;10.730;2022-07-23T09:18:38;27.50;99.20
25983;DHT22;13773;48.868;10.730;2022-07-23T09:21:08;27.30;99.30
25983;DHT22;13773;48.868;10.730;2022-07-23T09:24:01;27.70;99.30
25983;DHT22;13773;48.868;10.730;2022-07-23T09:29:04;28.40;98.50
25983;DHT22;13773;48.868;10.730;2022-07-23T09:34:24;28.20;98.10
25983;DHT22;13773;48.868;10.730;2022-07-23T09:36:55;27.90;98.90
25983;DHT22;13773;48.868;10.730;2022-07-23T09:41:51;28.30;98.10
25983;DHT22;13773;48.868;10.730;2022-07-23T09:44:19;28.50;98.50
25983;DHT22;13773;48.868;10.730;2022-07-23T09:46:47;28.30;98.50
25983;DHT22;13773;48.868;10.730;2022-07-23T09:49:19;28.00;98.60
25983;DHT22;13773;48.868;10.730;2022-07-23T09:51:46;28.60;98.80
25983;DHT22;13773;48.868;10.730;2022-07-23T09:56:54;27.90;98.80
25983;DHT22;13773;48.868;10.730;2022-07-23T09:59:27;27.60;99.80
25983;DHT22;13773;48.868;10.730;2022-07-23T10:01:55;27.10;99.90
25983;DHT22;13773;48.868;10.730;2022-07-23T10:04:23;26.50;99.90
25983;DHT22;13773;48.868;10.730;2022-07-23T10:06:53;26.50;99.90
25983;DHT22;13773;48.868;10.730;2022-07-23T10:09:32;26.20;99.90
25983;DHT22;13773;48.868;10.730;2022-07-23T10:12:00;26.50;99.90
25983;DHT22;13773;48.868;10.730;2022-07-23T10:14:34;27.10;99.90
25983;DHT22;13773;48.868;10.730;2022-07-23T10:17:03;27.10;99.90
25983;DHT22;13773;48.868;10.730;2022-07-23T10:19:29;26.70;99.90
25983;DHT22;13773;48.868;10.730;2022-07-23T10:22:29;26.70;99.90
25983;DHT22;13773;48.868;10.730;2022-07-23T10:25:24;27.20;99.50
25983;DHT22;13773;48.868;10.730;2022-07-23T10:36:04;27.10;99.70
25983;DHT22;13773;48.868;10.730;2022-07-23T10:38:43;27.20;98.90
25983;DHT22;13773;48.868;10.730;2022-07-23T10:41:13;26.40;99.60
25983;DHT22;13773;48.868;10.730;2022-07-23T10:43:38;26.50;99.90
25983;DHT22;13773;48.868;10.730;2022-07-23T10:46:24;26.90;99.40
25983;DHT22;13773;48.868;10.730;2022-07-23T10:49:23;27.10;98.80
25983;DHT22;13773;48.868;10.730;2022-07-23T10:54:37;26.60;99.30
25983;DHT22;13773;48.868;10.730;2022-07-23T10:57:07;26.60;99.10
25983;DHT22;13773;48.868;10.730;2022-07-23T11:02:29;27.30;98.60
25983;DHT22;13773;48.868;10.730;2022-07-23T11:05:01;27.60;98.60
25983;DHT22;13773;48.868;10.730;2022-07-23T11:07:27;28.30;97.80
25983;DHT22;13773;48.868;10.730;2022-07-23T11:09:53;28.40;97.30
25983;DHT22;13773;48.868;10.730;2022-07-23T11:17:27;27.70;97.60
25983;DHT22;13773;48.868;10.730;2022-07-23T11:20:14;27.60;98.00
25983;DHT22;13773;48.868;10.730;2022-07-23T11:25:27;27.80;97.40
25983;DHT22;13773;48.868;10.730;2022-07-23T11:27:54;27.90;97.40
25983;DHT22;13773;48.868;10.730;2022-07-23T11:33:34;28.20;96.90
25983;DHT22;13773;48.868;10.730;2022-07-23T11:35:46;27.40;98.30
25983;DHT22;13773;48.868;10.730;2022-07-23T11:38:17;28.40;97.60
25983;DHT22;13773;48.868;10.730;2022-07-23T11:40:49;28.40;97.10
25983;DHT22;13773;48.868;10.730;2022-07-23T11:43:17;28.70;96.10
25983;DHT22;13773;48.868;10.730;2022-07-23T11:45:46;29.10;96.20
25983;DHT22;13773;48.868;10.730;2022-07-23T11:48:23;29.00;96.50
25983;DHT22;13773;48.868;10.730;2022-07-23T11:50:50;29.30;96.10
25983;DHT22;13773;48.868;10.730;2022-07-23T11:53:29;29.10;96.90
25983;DHT22;13773;48.868;10.730;2022-07-23T11:56:04;29.50;96.50
25983;DHT22;13773;48.868;10.730;2022-07-23T11:58:30;29.70;96.80
25983;DHT22;13773;48.868;10.730;2022-07-23T12:00:55;29.80;96.00
25983;DHT22;13773;48.868;10.730;2022-07-23T12:03:21;30.00;96.40
25983;DHT22;13773;48.868;10.730;2022-07-23T12:05:47;30.10;95.40
25983;DHT22;13773;48.868;10.730;2022-07-23T12:08:13;29.50;95.70
25983;DHT22;13773;48.868;10.730;2022-07-23T12:10:41;29.20;95.50
25983;DHT22;13773;48.868;10.730;2022-07-23T12:13:10;29.00;95.80
25983;DHT22;13773;48.868;10.730;2022-07-23T12:15:42;28.50;96.00
25983;DHT22;13773;48.868;10.730;2022-07-23T12:18:10;28.40;95.90
25983;DHT22;13773;48.868;10.730;2022-07-23T12:20:41;28.40;95.90
25983;DHT22;13773;48.868;10.730;2022-07-23T12:23:09;28.40;96.10
25983;DHT22;13773;48.868;10.730;2022-07-23T12:25:43;28.70;96.40
25983;DHT22;13773;48.868;10.730;2022-07-23T12:28:22;29.30;96.10
25983;DHT22;13773;48.868;10.730;2022-07-23T12:30:53;29.50;95.80
25983;DHT22;13773;48.868;10.730;2022-07-23T12:36:04;28.30;96.50
25983;DHT22;13773;48.868;10.730;2022-07-23T12:38:47;28.00;96.60
25983;DHT22;13773;48.868;10.730;2022-07-23T12:41:14;28.20;97.00
25983;DHT22;13773;48.868;10.730;2022-07-23T12:43:43;27.90;96.60
25983;DHT22;13773;48.868;10.730;2022-07-23T12:46:13;28.00;96.60
25983;DHT22;13773;48.868;10.730;2022-07-23T12:48:50;28.20;96.60
25983;DHT22;13773;48.868;10.730;2022-07-23T12:51:18;27.80;96.30
25983;DHT22;13773;48.868;10.730;2022-07-23T12:53:46;28.30;96.30
25983;DHT22;13773;48.868;10.730;2022-07-23T12:56:14;28.40;95.80
25983;DHT22;13773;48.868;10.730;2022-07-23T12:59:12;28.60;95.90
25983;DHT22;13773;48.868;10.730;2022-07-23T13:01:43;28.00;96.20
25983;DHT22;13773;48.868;10.730;2022-07-23T13:04:24;27.90;96.60
25983;DHT22;13773;48.868;10.730;2022-07-23T13:06:57;27.60;96.80
25983;DHT22;13773;48.868;10.730;2022-07-23T13:09:28;27.20;97.00
25983;DHT22;13773;48.868;10.730;2022-07-23T13:11:56;27.20;97.20
25983;DHT22;13773;48.868;10.730;2022-07-23T13:14:23;27.40;97.40
25983;DHT22;13773;48.868;10.730;2022-07-23T13:16:50;27.60;96.60
25983;DHT22;13773;48.868;10.730;2022-07-23T13:19:16;27.90;96.60
25983;DHT22;13773;48.868;10.730;2022-07-23T13:21:42;27.90;96.40
25983;DHT22;13773;48.868;10.730;2022-07-23T13:24:10;28.10;96.60
25983;DHT22;13773;48.868;10.730;2022-07-23T13:26:37;27.70;96.70
25983;DHT22;13773;48.868;10.730;2022-07-23T13:29:03;27.60;97.20
25983;DHT22;13773;48.868;10.730;2022-07-23T13:31:29;27.90;96.80
25983;DHT22;13773;48.868;10.730;2022-07-23T13:33:54;27.70;97.00
25983;DHT22;13773;48.868;10.730;2022-07-23T13:36:20;28.00;96.50
25983;DHT22;13773;48.868;10.730;2022-07-23T13:38:46;28.30;96.40
25983;DHT22;13773;48.868;10.730;2022-07-23T13:41:11;29.10;96.20
25983;DHT22;13773;48.868;10.730;2022-07-23T13:43:37;29.80;95.30
25983;DHT22;13773;48.868;10.730;2022-07-23T13:46:03;29.90;95.60
25983;DHT22;13773;48.868;10.730;2022-07-23T13:48:29;29.60;95.30
25983;DHT22;13773;48.868;10.730;2022-07-23T13:50:54;29.50;95.70
25983;DHT22;13773;48.868;10.730;2022-07-23T13:53:22;29.10;95.30
25983;DHT22;13773;48.868;10.730;2022-07-23T13:55:50;28.50;95.50
25983;DHT22;13773;48.868;10.730;2022-07-23T13:58:16;28.10;95.80
25983;DHT22;13773;48.868;10.730;2022-07-23T14:00:46;28.10;95.80
25983;DHT22;13773;48.868;10.730;2022-07-23T14:03:12;27.90;96.20
25983;DHT22;13773;48.868;10.730;2022-07-23T14:05:38;27.90;96.10
25983;DHT22;13773;48.868;10.730;2022-07-23T14:08:05;28.70;95.60
25983;DHT22;13773;48.868;10.730;2022-07-23T14:10:31;29.60;95.40
25983;DHT22;13773;48.868;10.730;2022-07-23T14:12:57;29.10;95.30
25983;DHT22;13773;48.868;10.730;2022-07-23T14:15:26;29.00;95.10
25983;DHT22;13773;48.868;10.730;2022-07-23T14:17:53;29.00;95.30
25983;DHT22;13773;48.868;10.730;2022-07-23T14:20:19;29.00;95.40
25983;DHT22;13773;48.868;10.730;2022-07-23T14:22:45;29.00;95.70
25983;DHT22;13773;48.868;10.730;2022-07-23T14:25:11;28.90;95.40
25983;DHT22;13773;48.868;10.730;2022-07-23T14:27:37;28.60;95.90
25983;DHT22;13773;48.868;10.730;2022-07-23T14:30:05;28.90;96.10
25983;DHT22;13773;48.868;10.730;2022-07-23T14:32:31;29.30;96.40
25983;DHT22;13773;48.868;10.730;2022-07-23T14:34:57;28.90;96.00
25983;DHT22;13773;48.868;10.730;2022-07-23T14:37:23;28.60;95.80
25983;DHT22;13773;48.868;10.730;2022-07-23T14:39:50;28.60;95.70
25983;DHT22;13773;48.868;10.730;2022-07-23T14:42:16;28.70;96.30
25983;DHT22;13773;48.868;10.730;2022-07-23T14:44:42;29.10;95.90
25983;DHT22;13773;48.868;10.730;2022-07-23T14:47:08;28.60;95.80
25983;DHT22;13773;48.868;10.730;2022-07-23T14:49:33;28.60;95.80
25983;DHT22;13773;48.868;10.730;2022-07-23T14:51:59;28.90;95.50
25983;DHT22;13773;48.868;10.730;2022-07-23T14:54:26;28.70;95.70
25983;DHT22;13773;48.868;10.730;2022-07-23T14:56:56;28.80;95.30
25983;DHT22;13773;48.868;10.730;2022-07-23T14:59:23;28.80;95.10
25983;DHT22;13773;48.868;10.730;2022-07-23T15:01:49;28.70;95.40
25983;DHT22;13773;48.868;10.730;2022-07-23T15:04:15;28.80;95.30
25983;DHT22;13773;48.868;10.730;2022-07-23T15:06:41;28.70;95.20
25983;DHT22;13773;48.868;10.730;2022-07-23T15:09:07;29.00;94.80
25983;DHT22;13773;48.868;10.730;2022-07-23T15:11:33;29.20;94.20
25983;DHT22;13773;48.868;10.730;2022-07-23T15:14:06;29.30;94.30
25983;DHT22;13773;48.868;10.730;2022-07-23T15:16:32;29.20;94.00
25983;DHT22;13773;48.868;10.730;2022-07-23T15:18:58;29.10;94.30
25983;DHT22;13773;48.868;10.730;2022-07-23T15:21:24;29.30;94.00
25983;DHT22;13773;48.868;10.730;2022-07-23T15:23:50;29.20;93.00
25983;DHT22;13773;48.868;10.730;2022-07-23T15:26:16;29.30;93.40
25983;DHT22;13773;48.868;10.730;2022-07-23T15:28:43;29.70;93.30
25983;DHT22;13773;48.868;10.730;2022-07-23T15:31:10;29.10;92.30
25983;DHT22;13773;48.868;10.730;2022-07-23T15:33:36;28.80;92.60
25983;DHT22;13773;48.868;10.730;2022-07-23T15:36:03;28.70;92.90
25983;DHT22;13773;48.868;10.730;2022-07-23T15:38:29;28.20;92.70
25983;DHT22;13773;48.868;10.730;2022-07-23T15:40:56;27.80;93.20
25983;DHT22;13773;48.868;10.730;2022-07-23T15:43:23;28.10;93.10
25983;DHT22;13773;48.868;10.730;2022-07-23T15:45:49;28.20;93.00
25983;DHT22;13773;48.868;10.730;2022-07-23T15:48:15;28.30;92.70
25983;DHT22;13773;48.868;10.730;2022-07-23T15:50:41;28.20;92.50
25983;DHT22;13773;48.868;10.730;2022-07-23T15:53:08;28.30;92.60
25983;DHT22;13773;48.868;10.730;2022-07-23T15:55:34;28.10;92.80
25983;DHT22;13773;48.868;10.730;2022-07-23T15:58:00;28.10;92.90
25983;DHT22;13773;48.868;10.730;2022-07-23T16:00:26;27.90;92.90
25983;DHT22;13773;48.868;10.730;2022-07-23T16:02:52;27.60;93.10
25983;DHT22;13773;48.868;10.730;2022-07-23T16:05:17;27.40;93.40